Time,TemperatureF,DewpointF,PressureIn,WindDirection,WindDirectionDegrees,WindSpeedMPH,WindSpeedGustMPH,Humidity,HourlyPrecipIn,Conditions,Clouds,dailyrainin,SolarRadiationWatts/m^2,SoftwareType,DateUTC
2013-08-13 00:03:00,70.0,70.0,30.39,ESE,109,2.0,4.0,100,0.00,,,0.21,0.000000,,2013-08-13 04:03:00,
2013-08-13 00:42:00,69.0,69.0,30.38,ENE,62,1.0,4.0,100,0.00,,,0.21,0.000000,,2013-08-13 04:42:00,
2013-08-13 00:53:00,69.0,69.0,30.38,ENE,62,1.0,4.0,100,0.00,,,0.21,0.000000,,2013-08-13 04:53:00,
2013-08-13 01:02:00,69.0,69.0,30.38,ENE,62,1.0,4.0,100,0.00,,,0.21,0.000000,,2013-08-13 05:02:00,
2013-08-13 01:42:00,70.0,70.0,30.36,ESE,108,2.0,6.0,100,0.00,,,0.21,0.000000,,2013-08-13 05:42:00,
2013-08-13 01:52:00,70.0,70.0,30.36,ESE,108,2.0,6.0,100,0.00,,,0.21,0.000000,,2013-08-13 05:52:00,
2013-08-13 02:02:00,70.0,70.0,30.36,ESE,108,2.0,6.0,100,0.00,,,0.21,0.000000,,2013-08-13 06:02:00,
2013-08-13 02:42:00,70.0,70.0,30.35,North,349,1.0,3.0,100,0.00,,,0.21,0.000000,,2013-08-13 06:42:00,
2013-08-13 02:53:00,70.0,70.0,30.35,North,349,1.0,3.0,100,0.00,,,0.21,0.000000,,2013-08-13 06:53:00,
2013-08-13 03:01:00,70.0,70.0,30.35,North,349,1.0,3.0,100,0.00,,,0.21,0.000000,,2013-08-13 07:01:00,
2013-08-13 03:42:00,70.0,70.0,30.33,NE,37,2.0,5.0,100,0.00,,,0.21,0.000000,,2013-08-13 07:42:00,
2013-08-13 03:52:00,70.0,70.0,30.33,NE,37,2.0,5.0,100,0.00,,,0.21,0.000000,,2013-08-13 07:52:00,
2013-08-13 04:02:00,70.0,70.0,30.33,NE,37,2.0,5.0,100,0.00,,,0.21,0.000000,,2013-08-13 08:02:00,
2013-08-13 04:42:00,70.0,70.0,30.32,ENE,78,1.0,5.0,100,0.00,,,0.20,0.000000,,2013-08-13 08:42:00,
2013-08-13 04:52:00,70.0,70.0,30.32,ENE,78,1.0,5.0,100,0.00,,,0.20,0.000000,,2013-08-13 08:52:00,
2013-08-13 05:01:00,70.0,70.0,30.32,ENE,78,1.0,5.0,100,0.00,,,0.20,0.000000,,2013-08-13 09:01:00,
2013-08-13 05:43:00,68.0,68.0,30.31,ENE,63,1.0,6.0,100,0.00,,,0.20,0.000000,,2013-08-13 09:43:00,
2013-08-13 05:54:00,68.0,68.0,30.31,ENE,63,1.0,6.0,100,0.00,,,0.20,0.000000,,2013-08-13 09:54:00,
2013-08-13 06:03:00,68.0,68.0,30.31,ENE,63,1.0,6.0,100,0.00,,,0.20,0.000000,,2013-08-13 10:03:00,
2013-08-13 06:43:00,68.0,68.0,30.30,NNE,27,1.0,3.0,100,0.00,,,0.20,0.000000,,2013-08-13 10:43:00,
2013-08-13 06:53:00,68.0,68.0,30.30,NNE,27,1.0,3.0,100,0.00,,,0.20,0.000000,,2013-08-13 10:53:00,
2013-08-13 07:02:00,68.0,68.0,30.30,NNE,27,1.0,3.0,100,0.00,,,0.20,0.000000,,2013-08-13 11:02:00,
2013-08-13 07:42:00,68.0,68.0,30.32,WNW,297,1.0,3.0,100,0.11,,,0.31,0.000000,,2013-08-13 11:42:00,
2013-08-13 07:52:00,68.0,68.0,30.32,WNW,297,1.0,3.0,100,0.11,,,0.31,0.000000,,2013-08-13 11:52:00,
2013-08-13 08:01:00,68.0,68.0,30.32,WNW,297,1.0,3.0,100,0.11,,,0.31,0.000000,,2013-08-13 12:01:00,
2013-08-13 08:42:00,68.0,68.0,30.32,East,79,1.0,5.0,100,0.13,,,0.44,20.000000,,2013-08-13 12:42:00,
2013-08-13 08:52:00,68.0,68.0,30.32,East,79,1.0,5.0,100,0.13,,,0.44,20.000000,,2013-08-13 12:52:00,
2013-08-13 09:01:00,68.0,68.0,30.32,East,79,1.0,5.0,100,0.13,,,0.44,20.000000,,2013-08-13 13:01:00,
2013-08-13 09:42:00,69.0,69.0,30.33,SSE,147,2.0,3.0,100,0.00,,,0.44,88.000000,,2013-08-13 13:42:00,
2013-08-13 09:52:00,69.0,69.0,30.33,SSE,147,2.0,3.0,100,0.00,,,0.44,88.000000,,2013-08-13 13:52:00,
2013-08-13 10:02:00,69.0,69.0,30.33,SSE,147,2.0,3.0,100,0.00,,,0.44,88.000000,,2013-08-13 14:02:00,
2013-08-13 10:42:00,76.0,74.0,30.32,NW,313,2.0,6.0,93,0.00,,,0.44,190.000000,,2013-08-13 14:42:00,
2013-08-13 10:52:00,76.0,74.0,30.32,NW,313,2.0,6.0,93,0.00,,,0.44,190.000000,,2013-08-13 14:52:00,
2013-08-13 11:02:00,76.0,74.0,30.32,NW,313,2.0,6.0,93,0.00,,,0.44,190.000000,,2013-08-13 15:02:00,
2013-08-13 11:44:00,81.0,73.0,30.32,NNE,19,2.0,6.0,77,0.00,,,0.44,446.000000,,2013-08-13 15:44:00,
2013-08-13 11:54:00,81.0,73.0,30.32,NNE,19,2.0,6.0,77,0.00,,,0.44,446.000000,,2013-08-13 15:54:00,
2013-08-13 12:04:00,81.0,73.0,30.32,NNE,19,2.0,6.0,77,0.00,,,0.44,446.000000,,2013-08-13 16:04:00,
2013-08-13 12:45:00,78.0,72.0,30.30,NW,319,2.0,6.0,81,0.00,,,0.44,619.000000,,2013-08-13 16:45:00,
2013-08-13 12:54:00,78.0,72.0,30.30,NW,319,2.0,6.0,81,0.00,,,0.44,619.000000,,2013-08-13 16:54:00,
2013-08-13 13:06:00,78.0,72.0,30.30,NW,319,2.0,6.0,81,0.00,,,0.44,619.000000,,2013-08-13 17:06:00,
2013-08-13 13:46:00,-999.0,-99.9,30.28,WNW,300,3.0,14.0,-999,0.00,,,0.44,677.000000,,2013-08-13 17:46:00,
2013-08-13 13:56:00,82.0,71.0,30.28,WNW,300,3.0,14.0,70,0.00,,,0.44,677.000000,,2013-08-13 17:56:00,
2013-08-13 14:05:00,82.0,71.0,30.28,WNW,300,3.0,14.0,70,0.00,,,0.44,677.000000,,2013-08-13 18:05:00,
2013-08-13 14:44:00,83.0,70.0,30.27,NNW,336,3.0,14.0,65,0.00,,,0.44,995.000000,,2013-08-13 18:44:00,
2013-08-13 14:56:00,83.0,70.0,30.27,NNW,336,3.0,14.0,65,0.00,,,0.44,995.000000,,2013-08-13 18:56:00,
2013-08-13 15:04:00,83.0,70.0,30.27,NNW,336,3.0,14.0,65,0.00,,,0.44,995.000000,,2013-08-13 19:04:00,
2013-08-13 15:44:00,79.0,70.0,30.27,SSW,204,3.0,16.0,73,0.00,,,0.44,721.000000,,2013-08-13 19:44:00,
2013-08-13 15:55:00,79.0,70.0,30.27,SSW,204,3.0,16.0,73,0.00,,,0.44,721.000000,,2013-08-13 19:55:00,
2013-08-13 16:04:00,79.0,70.0,30.27,SSW,204,3.0,16.0,73,0.00,,,0.44,721.000000,,2013-08-13 20:04:00,
2013-08-13 16:45:00,82.0,70.0,30.26,NW,304,3.0,10.0,68,0.00,,,0.44,643.000000,,2013-08-13 20:45:00,
2013-08-13 16:53:00,82.0,70.0,30.26,NW,304,3.0,10.0,68,0.00,,,0.44,643.000000,,2013-08-13 20:53:00,
2013-08-13 17:01:00,82.0,70.0,30.26,NW,304,3.0,10.0,68,0.00,,,0.44,643.000000,,2013-08-13 21:01:00,
2013-08-13 17:46:00,75.0,67.0,30.26,NNE,23,3.0,18.0,76,0.08,,,0.32,617.000000,,2013-08-13 21:46:00,
2013-08-13 17:54:00,75.0,67.0,30.26,NNE,23,3.0,18.0,76,0.08,,,0.32,617.000000,,2013-08-13 21:54:00,
2013-08-13 18:04:00,75.0,67.0,30.26,NNE,23,3.0,18.0,76,0.08,,,0.32,617.000000,,2013-08-13 22:04:00,
2013-08-13 18:50:00,71.0,68.0,30.27,NW,309,2.0,11.0,91,0.01,,,0.33,261.000000,,2013-08-13 22:50:00,
2013-08-13 18:57:00,71.0,68.0,30.27,NW,309,2.0,11.0,91,0.01,,,0.33,261.000000,,2013-08-13 22:57:00,
2013-08-13 19:04:00,71.0,68.0,30.27,NW,309,2.0,11.0,91,0.01,,,0.33,261.000000,,2013-08-13 23:04:00,
2013-08-13 19:47:00,73.0,68.0,30.27,NNE,18,1.0,6.0,85,0.00,,,0.33,153.000000,,2013-08-13 23:47:00,
2013-08-13 19:57:00,73.0,68.0,30.27,NNE,18,1.0,6.0,85,0.00,,,0.33,153.000000,,2013-08-13 23:57:00,
2013-08-13 20:04:00,73.0,68.0,30.27,NNE,18,1.0,6.0,85,0.00,,,0.33,153.000000,,2013-08-14 00:04:00,
2013-08-13 20:42:00,68.0,66.0,30.28,WNW,285,1.0,6.0,93,0.00,,,0.33,66.000000,,2013-08-14 00:42:00,
2013-08-13 20:52:00,68.0,66.0,30.28,WNW,285,1.0,6.0,93,0.00,,,0.33,66.000000,,2013-08-14 00:52:00,
2013-08-13 21:01:00,68.0,66.0,30.28,WNW,285,1.0,6.0,93,0.00,,,0.33,66.000000,,2013-08-14 01:01:00,
2013-08-13 21:42:00,68.0,68.0,30.28,East,87,1.0,4.0,99,0.00,,,0.33,1.000000,,2013-08-14 01:42:00,
2013-08-13 21:52:00,68.0,68.0,30.28,East,87,1.0,4.0,99,0.00,,,0.33,1.000000,,2013-08-14 01:52:00,
2013-08-13 22:02:00,68.0,68.0,30.28,East,87,1.0,4.0,99,0.00,,,0.33,1.000000,,2013-08-14 02:02:00,
2013-08-13 22:42:00,68.0,68.0,30.30,NNE,27,1.0,4.0,100,0.00,,,0.33,0.000000,,2013-08-14 02:42:00,
2013-08-13 22:52:00,68.0,68.0,30.30,NNE,27,1.0,4.0,100,0.00,,,0.33,0.000000,,2013-08-14 02:52:00,
2013-08-13 23:01:00,68.0,68.0,30.30,NNE,27,1.0,4.0,100,0.00,,,0.33,0.000000,,2013-08-14 03:01:00,
2013-08-13 23:43:00,68.0,68.0,30.30,WNW,297,1.0,3.0,100,0.00,,,0.33,0.000000,,2013-08-14 03:43:00,
2013-08-13 23:53:00,68.0,68.0,30.30,WNW,297,1.0,3.0,100,0.00,,,0.33,0.000000,,2013-08-14 03:53:00,